KBOS Airport Information

Runway Information
Runway 04R Length 10005 ft width 150 ft
Elevation 18 ft Threshold 1154 ft Heading 20
Runway 22L Length 10005 ft Width 150 ft
Elevation 16 ft Threshold 1199 ft Heading 200
Runway 04L Length 7861 ft width 150 ft
Elevation 14 ft Threshold ft Heading 20
Runway 22R Length 7861 ft Width 150 ft
Elevation 15 ft Threshold 819 ft Heading 200
Runway 09 Length 7000 ft width 150 ft
Elevation 17 ft Threshold ft Heading 77
Runway 27 Length 7000 ft Width 150 ft
Elevation 15 ft Threshold ft Heading 257
Runway 15R Length 10083 ft width 150 ft
Elevation 17 ft Threshold 880 ft Heading 135
Runway 33L Length 10083 ft Width 150 ft
Elevation 15 ft Threshold ft Heading 315
Runway 15L Length 2557 ft width 100 ft
Elevation 15 ft Threshold ft Heading 135
Runway 33R Length 2557 ft Width 100 ft
Elevation 14 ft Threshold ft Heading 315
Runway 14 Length 5000 ft width 100 ft
Elevation 17 ft Threshold ft Heading 125
Runway 32 Length 5000 ft Width 100 ft
Elevation 20 ft Threshold ft Heading 305
Airport Frequencies
Type APP Name BOSTON APP Frequency 118.25 MHZ
Type ATIS Name ATIS Frequency 135 MHZ
Type CLD Name CLNC DEL Frequency 121.65 MHZ
Type DEP Name BOSTON DEP Frequency 133 MHZ
Type GND Name GND Frequency 121.9 MHZ
Type GTE Name GATE Frequency 134.05 MHZ
Type RDO Name BRIDGEPORT Frequency 122.4 MHZ
Type TWR Name BOSTON TWR Frequency 124.725 MHZ
Type UNIC Name UNICOM Frequency 122.95 MHZ
Airport Navaids
Type NDB Name Miltt Frequency 375 KHZ
Type VORTAC Name Boston Frequency 112700 KHZ
Type NDB Name Hullz Frequency 346 KHZ
Type NDB Name Lyndy Frequency 382 KHZ
Airport Weather Information & NOTAM
ADDS - METARS form results

(1010 UTC 13 September 2022)
Data provider http://aviationweather.gov/metar/data/
 
METAR text: KBOS 130958Z 15003KT 1/2SM R04R/2400V2600FT BR OVC002 20/20 A2979 RMK AO2 SFC VIS 3/4 T02000200
Conditions at: KBOS (BOSTON , MA, US) observed 0958 UTC 13 September 2022
Temperature: 20.0°C (68°F)
Dewpoint: 20.0°C (68°F) [RH = 100%]
Pressure (altimeter): 29.79 inches Hg (1008.9 mb)
Winds: from the SSE (150 degrees) at 3 MPH (3 knots; 1.5 m/s)
Visibility: 0.50 miles (0.80 km)
Ceiling: 200 feet AGL
Clouds: overcast cloud deck at 200 feet AGL
Weather: BR  (mist)

METAR text: KBOS 130954Z 16003KT 1SM R04R/2400V3000FT BR OVC002 19/19 A2979 RMK AO2 SLP088 T01940194
Conditions at: KBOS (BOSTON , MA, US) observed 0954 UTC 13 September 2022
Temperature: 19.4°C (67°F)
Dewpoint: 19.4°C (67°F) [RH = 100%]
Pressure (altimeter): 29.79 inches Hg (1008.9 mb)
[Sea-level pressure: 1008.8 mb]
Winds: from the SSE (160 degrees) at 3 MPH (3 knots; 1.5 m/s)
Visibility: 1.00 miles (1.61 km)
Ceiling: 200 feet AGL
Clouds: overcast cloud deck at 200 feet AGL
Weather: BR  (mist)

METAR text: KBOS 130951Z 17004KT 1 3/4SM R04R/2400V5500FT BR OVC002 19/19 A2979 RMK AO2 VIS 1/2 E
Conditions at: KBOS (BOSTON , MA, US) observed 0951 UTC 13 September 2022
Temperature: 19.0°C (66°F)
Dewpoint: 19.0°C (66°F) [RH = 100%]
Pressure (altimeter): 29.79 inches Hg (1008.9 mb)
Winds: from the S (170 degrees) at 5 MPH (4 knots; 2.1 m/s)
Visibility: 1.75 miles (2.82 km)
Ceiling: 200 feet AGL
Clouds: overcast cloud deck at 200 feet AGL
Weather: BR  (mist)

METAR text: KBOS 130921Z 19004KT 3SM BR BKN002 OVC250 19/19 A2980 RMK AO2 T01940194
Conditions at: KBOS (BOSTON , MA, US) observed 0921 UTC 13 September 2022
Temperature: 19.4°C (67°F)
Dewpoint: 19.4°C (67°F) [RH = 100%]
Pressure (altimeter): 29.80 inches Hg (1009.2 mb)
Winds: from the S (190 degrees) at 5 MPH (4 knots; 2.1 m/s)
Visibility: 3 miles ( 5 km)
Ceiling: 200 feet AGL
Clouds: broken clouds at 200 feet AGL
overcast cloud deck at 25000 feet AGL
Weather: BR  (mist)

METAR text: KBOS 130918Z 19004KT 2SM BR BKN002 OVC250 19/19 A2980 RMK AO2 T01940194
Conditions at: KBOS (BOSTON , MA, US) observed 0918 UTC 13 September 2022
Temperature: 19.4°C (67°F)
Dewpoint: 19.4°C (67°F) [RH = 100%]
Pressure (altimeter): 29.80 inches Hg (1009.2 mb)
Winds: from the S (190 degrees) at 5 MPH (4 knots; 2.1 m/s)
Visibility: 2.00 miles (3.22 km)
Ceiling: 200 feet AGL
Clouds: broken clouds at 200 feet AGL
overcast cloud deck at 25000 feet AGL
Weather: BR  (mist)

Forecast for: KBOS (BOSTON , MA, US)
Text: KBOS 130830Z 1309/1412 17004KT 2SM BR OVC003
Forecast period: 0900 to 1300 UTC 13 September 2022
Forecast type: FROM: standard forecast or significant change
Winds: from the S (170 degrees) at 5 MPH (4 knots; 2.1 m/s)
Visibility: 2.00 miles (3.22 km)
Ceiling: 300 feet AGL
Clouds: overcast cloud deck at 300 feet AGL
Weather: BR  (mist)
Text: FM131300 16003KT 2SM BR VCSH OVC003
Forecast period: 1300 to 1500 UTC 13 September 2022
Forecast type: FROM: standard forecast or significant change
Winds: from the SSE (160 degrees) at 3 MPH (3 knots; 1.5 m/s)
Visibility: 2.00 miles (3.22 km)
Ceiling: 300 feet AGL
Clouds: overcast cloud deck at 300 feet AGL
Weather: BR VCSH  (mist, showers in vicinity)
Text: FM131500 12007KT 6SM -SHRA BR OVC008
Forecast period: 1500 to 2100 UTC 13 September 2022
Forecast type: FROM: standard forecast or significant change
Winds: from the ESE (120 degrees) at 8 MPH (7 knots; 3.6 m/s)
Visibility: 6 miles (10 km)
Ceiling: 800 feet AGL
Clouds: overcast cloud deck at 800 feet AGL
Weather: -SHRA BR  (light rain showers, mist)
Text: FM132100 17008KT P6SM VCSH SCT008 OVC010
Forecast period: 2100 UTC 13 September 2022 to 0200 UTC 14 September 2022
Forecast type: FROM: standard forecast or significant change
Winds: from the S (170 degrees) at 9 MPH (8 knots; 4.1 m/s)
Visibility: 6 or more miles (10+ km)
Ceiling: 1000 feet AGL
Clouds: scattered clouds at 800 feet AGL
overcast cloud deck at 1000 feet AGL
Weather: VCSH  (showers in vicinity)
Text: FM140200 20008KT P6SM SCT008
Forecast period: 0200 to 0400 UTC 14 September 2022
Forecast type: FROM: standard forecast or significant change
Winds: from the SSW (200 degrees) at 9 MPH (8 knots; 4.1 m/s)
Visibility: 6 or more miles (10+ km)
Ceiling: at least 12,000 feet AGL
Clouds: scattered clouds at 800 feet AGL
Weather: no significant weather forecast for this period
Text: FM140400 25009KT P6SM SCT090
Forecast period: 0400 to 1200 UTC 14 September 2022
Forecast type: FROM: standard forecast or significant change
Winds: from the WSW (250 degrees) at 10 MPH (9 knots; 4.6 m/s)
Visibility: 6 or more miles (10+ km)
Ceiling: at least 12,000 feet AGL
Clouds: scattered clouds at 9000 feet AGL
Weather: no significant weather forecast for this period